createdAt,value
2018-04-28T00:02:25.315Z,1.70
2018-04-28T00:04:52.876Z,1.50
2018-04-28T00:07:20.477Z,1.70
2018-04-28T00:09:48.043Z,1.60
2018-04-28T00:12:15.663Z,2.27
2018-04-28T00:14:43.288Z,1.50
2018-04-28T00:17:14.652Z,2.10
2018-04-28T00:19:42.995Z,1.70
2018-04-28T00:22:15.405Z,1.90
2018-04-28T00:24:42.983Z,1.93
2018-04-28T00:27:10.586Z,2.00
2018-04-28T00:29:38.180Z,1.70
2018-04-28T00:32:05.796Z,1.90
2018-04-28T00:34:38.267Z,1.73
2018-04-28T00:37:05.875Z,1.30
2018-04-28T00:39:33.457Z,1.80
2018-04-28T00:42:01.047Z,1.80
2018-04-28T00:44:30.507Z,1.73
2018-04-28T00:47:01.832Z,1.90
2018-04-28T00:49:31.835Z,1.60
2018-04-28T00:51:59.456Z,1.70
2018-04-28T00:54:38.924Z,1.83
2018-04-28T00:57:23.271Z,1.83
2018-04-28T00:59:57.576Z,1.53
2018-04-28T01:02:25.163Z,1.77
2018-04-28T01:04:52.747Z,1.33
2018-04-28T01:07:21.135Z,1.83
2018-04-28T01:10:06.452Z,1.60
2018-04-28T01:12:43.598Z,1.87
2018-04-28T01:15:14.217Z,1.93
2018-04-28T01:17:47.553Z,1.43
2018-04-28T01:20:15.983Z,1.50
2018-04-28T01:22:43.544Z,2.03
2018-04-28T01:25:11.139Z,1.53
2018-04-28T01:27:44.676Z,1.60
2018-04-28T01:30:30.895Z,1.60
2018-04-28T01:33:19.175Z,1.77
2018-04-28T01:35:52.598Z,1.40
2018-04-28T01:38:30.067Z,1.60
2018-04-28T01:41:02.517Z,1.67
2018-04-28T01:43:35.935Z,1.60
2018-04-28T01:46:09.175Z,1.37
2018-04-28T01:48:37.723Z,2.17
2018-04-28T01:51:07.575Z,1.50
2018-04-28T01:53:35.163Z,1.70
2018-04-28T01:56:02.755Z,1.70
2018-04-28T01:58:46.072Z,1.60
2018-04-28T02:01:19.481Z,2.07
2018-04-28T02:03:49.843Z,1.60
2018-04-28T02:06:23.196Z,1.47
2018-04-28T02:08:53.519Z,1.70
2018-04-28T02:11:23.060Z,1.97
2018-04-28T02:13:51.652Z,1.60
2018-04-28T02:16:19.295Z,1.93
2018-04-28T02:19:01.679Z,1.63
2018-04-28T02:21:44.111Z,2.10
2018-04-28T02:24:11.708Z,2.40
2018-04-28T02:26:44.028Z,1.80
2018-04-28T02:29:16.415Z,2.13
2018-04-28T02:31:49.860Z,2.13
2018-04-28T02:34:23.184Z,2.07
2018-04-28T02:36:50.788Z,1.87
2018-04-28T02:39:19.284Z,2.00
2018-04-28T02:41:46.911Z,2.30
2018-04-28T02:44:20.220Z,1.70
2018-04-28T02:46:50.521Z,2.20
2018-04-28T02:49:33.796Z,2.10
2018-04-28T02:52:13.099Z,2.10
2018-04-28T02:54:42.435Z,2.20
2018-04-28T02:57:10.875Z,2.20
2018-04-28T02:59:44.162Z,2.07
2018-04-28T03:02:26.551Z,1.87
2018-04-28T03:05:11.925Z,2.07
2018-04-28T03:07:55.202Z,2.10
2018-04-28T03:10:28.313Z,3.00
2018-04-28T03:12:55.603Z,2.27
2018-04-28T03:15:22.896Z,1.67
2018-04-28T03:17:57.046Z,2.50
2018-04-28T03:20:25.229Z,2.30
2018-04-28T03:22:56.572Z,2.50
2018-04-28T03:25:25.564Z,1.97
2018-04-28T03:27:58.566Z,1.90
2018-04-28T03:30:25.873Z,2.20
2018-04-28T03:32:53.172Z,2.60
2018-04-28T03:35:24.548Z,1.77
2018-04-28T03:37:56.696Z,2.13
2018-04-28T03:40:26.890Z,2.00
2018-04-28T03:42:56.100Z,2.43
2018-04-28T03:45:24.199Z,2.30
2018-04-28T03:47:57.375Z,2.20
2018-04-28T03:50:26.576Z,2.00
2018-04-28T03:52:54.885Z,2.00
2018-04-28T03:55:22.721Z,2.10
2018-04-28T03:57:55.847Z,1.80
2018-04-28T04:00:29.208Z,2.43
2018-04-28T04:03:02.564Z,2.27
2018-04-28T04:05:30.847Z,2.10
2018-04-28T04:08:01.060Z,2.20
2018-04-28T04:10:28.472Z,2.27
2018-04-28T04:13:01.389Z,2.57
2018-04-28T04:15:34.639Z,1.93
2018-04-28T04:18:07.919Z,2.77
2018-04-28T04:20:50.961Z,2.00
2018-04-28T04:23:19.229Z,2.33
2018-04-28T04:25:51.456Z,1.77
2018-04-28T04:28:22.987Z,2.80
2018-04-28T04:34:04.299Z,1.80
2018-04-28T04:36:32.933Z,2.30
2018-04-28T04:39:08.211Z,1.97
2018-04-28T04:41:50.311Z,1.93
2018-04-28T04:44:20.364Z,2.83
2018-04-28T04:47:04.384Z,2.57
2018-04-28T04:49:37.411Z,2.60
2018-04-28T04:52:05.856Z,2.50
2018-04-28T04:54:36.912Z,2.03
2018-04-28T04:57:10.426Z,1.77
2018-04-28T04:59:43.516Z,2.67
2018-04-28T05:02:12.545Z,2.83
2018-04-28T05:04:46.110Z,2.47
2018-04-28T05:07:19.183Z,2.10
2018-04-28T05:09:51.156Z,2.40
2018-04-28T05:12:18.449Z,1.87
2018-04-28T05:15:00.887Z,2.07
2018-04-28T05:17:39.845Z,2.60
2018-04-28T05:20:13.061Z,2.87
2018-04-28T05:22:46.226Z,2.57
2018-04-28T05:25:19.354Z,2.17
2018-04-28T05:27:52.623Z,2.10
2018-04-28T05:30:25.781Z,2.27
2018-04-28T05:32:53.926Z,2.30
2018-04-28T05:35:28.164Z,2.53
2018-04-28T05:38:01.092Z,2.60
2018-04-28T05:40:44.326Z,2.33
2018-04-28T05:43:17.375Z,2.10
2018-04-28T05:45:50.361Z,2.70
2018-04-28T05:48:23.429Z,3.10
2018-04-28T05:50:56.379Z,2.27
2018-04-28T05:53:29.384Z,1.93
2018-04-28T05:55:56.730Z,2.90
2018-04-28T05:58:40.829Z,2.10
2018-04-28T06:01:09.191Z,2.03
2018-04-28T06:03:39.402Z,2.47
2018-04-28T06:06:12.510Z,1.77
2018-04-28T06:08:43.711Z,2.30
2018-04-28T06:11:12.977Z,2.40
2018-04-28T06:13:46.291Z,2.27
2018-04-28T06:16:19.483Z,2.53
2018-04-28T06:18:50.517Z,2.77
2018-04-28T06:21:18.152Z,2.17
2018-04-28T06:23:45.400Z,1.97
2018-04-28T06:26:12.691Z,2.33
2018-04-28T06:28:40.003Z,2.60
2018-04-28T06:31:07.804Z,2.07
2018-04-28T06:33:35.129Z,2.43
2018-04-28T06:36:02.639Z,2.40
2018-04-28T06:38:30.100Z,2.53
2018-04-28T06:40:57.386Z,2.23
2018-04-28T06:43:24.636Z,2.50
2018-04-28T06:45:52.072Z,2.23
2018-04-28T06:48:19.416Z,2.40
2018-04-28T06:50:46.739Z,2.33
2018-04-28T06:53:13.999Z,2.30
2018-04-28T06:55:41.292Z,3.53
2018-04-28T06:58:08.595Z,2.40
2018-04-28T07:00:36.072Z,2.77
2018-04-28T07:03:03.432Z,2.33
2018-04-28T07:05:30.743Z,2.60
2018-04-28T07:07:58.040Z,2.10
2018-04-28T07:10:25.464Z,3.00
2018-04-28T07:12:52.969Z,2.83
2018-04-28T07:15:20.376Z,2.30
2018-04-28T07:17:47.690Z,2.17
2018-04-28T07:20:15.144Z,2.53
2018-04-28T07:22:42.480Z,2.17
2018-04-28T07:25:09.772Z,3.57
2018-04-28T07:27:37.079Z,2.33
2018-04-28T07:30:04.773Z,3.23
2018-04-28T07:32:32.392Z,2.30
2018-04-28T07:34:59.763Z,2.43
2018-04-28T07:37:27.139Z,2.87
2018-04-28T07:39:54.420Z,2.67
2018-04-28T07:42:21.937Z,2.00
2018-04-28T07:44:49.465Z,2.47
2018-04-28T07:47:16.762Z,1.90
2018-04-28T07:49:44.058Z,2.10
2018-04-28T07:52:11.319Z,2.20
2018-04-28T07:54:38.753Z,2.37
2018-04-28T07:57:06.057Z,2.03
2018-04-28T07:59:33.489Z,1.93
2018-04-28T08:02:00.923Z,1.93
2018-04-28T08:04:28.205Z,2.07
2018-04-28T08:06:56.052Z,2.40
2018-04-28T08:09:24.129Z,2.20
2018-04-28T08:11:51.537Z,2.77
2018-04-28T08:14:18.820Z,1.90
2018-04-28T08:16:46.404Z,2.50
2018-04-28T08:19:13.715Z,2.73
2018-04-28T08:21:41.080Z,2.70
2018-04-28T08:24:08.624Z,2.00
2018-04-28T08:26:36.297Z,2.80
2018-04-28T08:29:03.597Z,2.50
2018-04-28T08:31:31.015Z,2.53
2018-04-28T08:33:58.450Z,2.50
2018-04-28T08:36:25.796Z,2.20
2018-04-28T08:38:53.363Z,3.93
2018-04-28T08:41:20.711Z,2.10
2018-04-28T08:43:48.006Z,2.20
2018-04-28T08:46:15.344Z,2.10
2018-04-28T08:48:42.755Z,2.50
2018-04-28T08:51:10.039Z,2.87
2018-04-28T08:53:37.471Z,2.57
2018-04-28T08:56:04.719Z,2.47
2018-04-28T08:58:32.190Z,2.13
2018-04-28T09:01:02.445Z,2.00
2018-04-28T09:03:29.706Z,2.30
2018-04-28T09:05:56.979Z,2.23
2018-04-28T09:08:24.416Z,2.13
2018-04-28T09:10:52.079Z,2.10
2018-04-28T09:13:19.569Z,2.33
2018-04-28T09:15:47.336Z,2.70
2018-04-28T09:18:15.036Z,2.47
2018-04-28T09:20:42.641Z,2.77
2018-04-28T09:23:10.160Z,2.10
2018-04-28T09:25:37.996Z,2.40
2018-04-28T09:28:05.496Z,2.40
2018-04-28T09:30:33.304Z,2.97
2018-04-28T09:33:00.910Z,2.17
2018-04-28T09:35:28.623Z,1.90
2018-04-28T09:37:56.266Z,2.47
2018-04-28T09:40:23.772Z,2.60
2018-04-28T09:42:51.296Z,2.70
2018-04-28T09:45:18.787Z,2.97
2018-04-28T09:47:46.300Z,2.10
2018-04-28T09:50:13.780Z,2.40
2018-04-28T09:52:41.292Z,2.87
2018-04-28T09:55:08.790Z,2.30
2018-04-28T09:57:36.451Z,2.27
2018-04-28T10:00:09.904Z,2.67
2018-04-28T10:02:37.408Z,2.40
2018-04-28T10:05:04.903Z,2.37
2018-04-28T10:07:32.396Z,4.63
2018-04-28T10:09:59.893Z,2.00
2018-04-28T10:12:27.380Z,2.90
2018-04-28T10:14:54.928Z,2.67
2018-04-28T10:17:22.444Z,2.83
2018-04-28T10:19:49.921Z,1.77
2018-04-28T10:22:17.417Z,2.33
2018-04-28T10:24:44.926Z,2.27
2018-04-28T10:27:12.536Z,2.50
2018-04-28T10:29:40.064Z,2.50
2018-04-28T10:32:07.586Z,2.67
2018-04-28T10:34:35.094Z,2.23
2018-04-28T10:37:02.600Z,3.10
2018-04-28T10:39:30.309Z,2.37
2018-04-28T10:41:57.802Z,2.57
2018-04-28T10:44:25.616Z,2.63
2018-04-28T10:46:57.594Z,4.07
2018-04-28T10:49:25.149Z,2.43
2018-04-28T10:51:52.903Z,2.90
2018-04-28T10:54:20.404Z,3.27
2018-04-28T10:56:47.957Z,2.80
2018-04-28T10:59:15.465Z,2.73
2018-04-28T11:01:43.318Z,2.50
2018-04-28T11:04:10.820Z,2.73
2018-04-28T11:06:38.325Z,2.63
2018-04-28T11:09:05.816Z,2.70
2018-04-28T11:11:33.342Z,3.00
2018-04-28T11:14:00.833Z,3.07
2018-04-28T11:16:28.347Z,2.80
2018-04-28T11:18:56.336Z,2.93
2018-04-28T11:21:23.925Z,3.30
2018-04-28T11:23:51.608Z,3.03
2018-04-28T11:26:19.098Z,2.80
2018-04-28T11:28:46.687Z,2.90
2018-04-28T11:31:14.177Z,3.37
2018-04-28T11:33:41.759Z,3.00
2018-04-28T11:36:09.228Z,3.50
2018-04-28T11:38:36.706Z,3.20
2018-04-28T11:41:04.252Z,3.27
2018-04-28T11:43:31.785Z,2.90
2018-04-28T11:45:59.261Z,2.97
2018-04-28T11:48:26.774Z,3.13
2018-04-28T11:50:54.310Z,3.13
2018-04-28T11:53:21.885Z,3.23
2018-04-28T11:55:49.376Z,2.87
2018-04-28T11:58:16.907Z,4.50
2018-04-28T12:00:44.427Z,3.10
2018-04-28T12:03:11.939Z,3.13
2018-04-28T12:05:39.506Z,2.60
2018-04-28T12:08:06.958Z,3.17
2018-04-28T12:10:34.453Z,3.70
2018-04-28T12:13:01.962Z,3.23
2018-04-28T12:15:29.585Z,2.70
2018-04-28T12:17:57.080Z,3.07
2018-04-28T12:20:24.596Z,3.30
2018-04-28T12:22:52.587Z,3.03
2018-04-28T12:25:20.100Z,3.23
2018-04-28T12:27:47.608Z,3.33
2018-04-28T12:30:15.163Z,3.27
2018-04-28T12:32:42.679Z,3.00
2018-04-28T12:35:10.152Z,3.10
2018-04-28T12:37:37.639Z,2.40
2018-04-28T12:40:05.151Z,3.00
2018-04-28T12:42:32.655Z,3.47
2018-04-28T12:45:00.164Z,3.30
2018-04-28T12:47:27.657Z,3.80
2018-04-28T12:49:55.156Z,3.60
2018-04-28T12:52:22.645Z,3.17
2018-04-28T12:54:50.175Z,3.00
2018-04-28T12:57:17.677Z,3.70
2018-04-28T12:59:45.151Z,3.33
2018-04-28T13:02:12.634Z,3.50
2018-04-28T13:04:40.114Z,2.80
2018-04-28T13:07:07.595Z,2.97
2018-04-28T13:09:35.106Z,3.10
2018-04-28T13:12:02.614Z,4.00
2018-04-28T13:14:30.119Z,3.17
2018-04-28T13:16:57.607Z,3.23
2018-04-28T13:19:25.097Z,3.23
2018-04-28T13:21:52.592Z,3.07
2018-04-28T13:24:20.100Z,3.80
2018-04-28T13:26:47.633Z,3.10
2018-04-28T13:29:15.185Z,3.10
2018-04-28T13:31:42.690Z,3.00
2018-04-28T13:34:10.180Z,2.67
2018-04-28T13:36:37.670Z,3.30
2018-04-28T13:39:05.209Z,3.20
2018-04-28T13:41:32.747Z,2.80
2018-04-28T13:44:00.237Z,3.77
2018-04-28T13:46:27.724Z,3.43
2018-04-28T13:48:55.209Z,4.20
2018-04-28T13:51:22.764Z,3.40
2018-04-28T13:53:50.252Z,3.07
2018-04-28T13:56:17.757Z,2.93
2018-04-28T13:58:45.379Z,3.50
2018-04-28T14:01:12.868Z,3.27
2018-04-28T14:03:40.338Z,3.77
2018-04-28T14:06:07.823Z,3.77
2018-04-28T14:08:35.371Z,3.70
2018-04-28T14:11:02.858Z,3.00
2018-04-28T14:13:30.348Z,4.23
2018-04-28T14:15:57.822Z,4.43
2018-04-28T14:18:25.307Z,3.23
2018-04-28T14:20:52.865Z,4.00
2018-04-28T14:23:20.356Z,3.37
2018-04-28T14:25:47.876Z,3.73
2018-04-28T14:28:15.356Z,3.10
2018-04-28T14:30:42.994Z,3.30
2018-04-28T14:33:10.595Z,3.80
2018-04-28T14:35:38.144Z,4.20
2018-04-28T14:38:05.632Z,3.23
2018-04-28T14:40:33.197Z,3.93
2018-04-28T14:43:00.698Z,4.00
2018-04-28T14:45:28.187Z,4.33
2018-04-28T14:47:55.687Z,3.20
2018-04-28T14:50:23.169Z,3.27
2018-04-28T14:52:50.738Z,3.40
2018-04-28T14:55:18.192Z,3.53
2018-04-28T14:57:45.680Z,4.20
2018-04-28T15:00:13.244Z,3.43
2018-04-28T15:02:41.200Z,3.87
2018-04-28T15:05:08.676Z,4.00
2018-04-28T15:07:36.283Z,3.63
2018-04-28T15:10:03.979Z,3.20
2018-04-28T15:12:31.461Z,4.63
2018-04-28T15:14:58.954Z,4.13
2018-04-28T15:17:26.811Z,3.97
2018-04-28T15:19:54.692Z,3.87
2018-04-28T15:22:22.201Z,4.40
2018-04-28T15:24:49.692Z,3.50
2018-04-28T15:27:17.361Z,4.73
2018-04-28T15:29:44.848Z,3.70
2018-04-28T15:32:12.344Z,4.20
2018-04-28T15:34:40.075Z,3.93
2018-04-28T15:37:07.571Z,3.40
2018-04-28T15:39:35.292Z,3.90
2018-04-28T15:42:03.036Z,4.20
2018-04-28T15:44:30.737Z,4.17
2018-04-28T15:46:58.212Z,4.17
2018-04-28T15:49:25.707Z,4.20
2018-04-28T15:51:53.242Z,4.47
2018-04-28T15:54:20.817Z,4.57
2018-04-28T15:56:48.313Z,3.60
2018-04-28T15:59:15.795Z,4.33
2018-04-28T16:01:43.288Z,4.20
2018-04-28T16:04:10.796Z,4.00
2018-04-28T16:06:38.326Z,4.10
2018-04-28T16:09:05.807Z,4.40
2018-04-28T16:11:33.360Z,4.70
2018-04-28T16:14:00.851Z,4.53
2018-04-28T16:16:28.356Z,4.43
2018-04-28T16:18:55.895Z,4.10
2018-04-28T16:21:23.388Z,3.60
2018-04-28T16:23:50.870Z,4.27
2018-04-28T16:26:18.388Z,4.20
2018-04-28T16:28:45.878Z,3.33
2018-04-28T16:31:13.357Z,4.20
2018-04-28T16:33:40.898Z,3.93
2018-04-28T16:36:08.499Z,4.50
2018-04-28T16:38:36.550Z,4.10
2018-04-28T16:41:04.058Z,3.80
2018-04-28T16:43:31.567Z,3.60
2018-04-28T16:45:59.058Z,3.57
2018-04-28T16:48:26.552Z,3.90
2018-04-28T16:50:54.113Z,3.97
2018-04-28T16:53:21.773Z,4.27
2018-04-28T16:55:49.266Z,4.33
2018-04-28T16:58:16.771Z,3.80
2018-04-28T17:00:44.267Z,3.77
2018-04-28T17:03:11.771Z,4.73
2018-04-28T17:05:39.270Z,3.60
2018-04-28T17:08:06.774Z,4.17
2018-04-28T17:10:34.344Z,4.57
2018-04-28T17:13:01.827Z,3.93
2018-04-28T17:15:29.316Z,4.53
2018-04-28T17:17:56.823Z,4.50
2018-04-28T17:20:24.308Z,4.00
2018-04-28T17:22:51.813Z,5.67
2018-04-28T17:25:19.335Z,4.73
2018-04-28T17:27:46.828Z,4.70
2018-04-28T17:30:14.349Z,4.80
2018-04-28T17:32:41.852Z,4.90
2018-04-28T17:35:09.331Z,5.27
2018-04-28T17:37:36.954Z,4.63
2018-04-28T17:40:04.493Z,5.33
2018-04-28T17:42:32.511Z,4.97
2018-04-28T17:45:00.011Z,5.10
2018-04-28T17:47:27.521Z,6.07
2018-04-28T17:49:55.025Z,5.70
2018-04-28T17:52:22.507Z,5.67
2018-04-28T17:54:49.996Z,5.03
2018-04-28T17:57:17.537Z,4.90
2018-04-28T17:59:45.041Z,6.07
2018-04-28T18:02:12.814Z,5.40
2018-04-28T18:04:40.499Z,5.07
2018-04-28T18:07:07.993Z,7.97
2018-04-28T18:09:35.533Z,5.20
2018-04-28T18:12:03.048Z,5.20
2018-04-28T18:14:30.819Z,5.53
2018-04-28T18:16:58.260Z,5.10
2018-04-28T18:19:25.742Z,5.47
2018-04-28T18:21:53.243Z,5.67
2018-04-28T18:24:20.728Z,4.50
2018-04-28T18:26:48.200Z,5.07
2018-04-28T18:29:15.678Z,4.40
2018-04-28T18:31:43.169Z,5.47
2018-04-28T18:34:10.683Z,4.43
2018-04-28T18:36:38.199Z,4.47
2018-04-28T18:39:05.739Z,4.80
2018-04-28T18:41:33.243Z,5.03
2018-04-28T18:44:00.741Z,4.30
2018-04-28T18:46:28.286Z,4.67
2018-04-28T18:48:55.804Z,4.93
2018-04-28T18:51:23.283Z,4.57
2018-04-28T18:53:50.781Z,4.93
2018-04-28T18:56:18.267Z,4.23
2018-04-28T18:58:45.788Z,4.17
2018-04-28T19:01:13.276Z,4.00
2018-04-28T19:03:40.798Z,4.47
2018-04-28T19:06:08.296Z,3.80
2018-04-28T19:08:35.805Z,4.30
2018-04-28T19:11:03.305Z,4.20
2018-04-28T19:13:30.792Z,3.80
2018-04-28T19:15:58.294Z,3.40
2018-04-28T19:18:26.549Z,3.57
2018-04-28T19:20:54.288Z,3.63
2018-04-28T19:23:21.827Z,3.90
2018-04-28T19:25:49.312Z,3.77
2018-04-28T19:28:16.782Z,3.87
2018-04-28T19:30:44.263Z,3.83
2018-04-28T19:33:11.767Z,4.13
2018-04-28T19:35:39.255Z,3.63
2018-04-28T19:38:06.760Z,3.73
2018-04-28T19:40:34.360Z,3.27
2018-04-28T19:43:01.854Z,4.00
2018-04-28T19:45:29.328Z,4.50
2018-04-28T19:47:56.808Z,4.17
2018-04-28T19:50:24.332Z,3.47
2018-04-28T19:52:51.812Z,3.40
2018-04-28T19:55:19.287Z,3.50
2018-04-28T19:57:46.768Z,3.97
2018-04-28T20:00:14.312Z,3.20
2018-04-28T20:02:41.880Z,3.13
2018-04-28T20:05:09.420Z,3.13
2018-04-28T20:07:36.919Z,3.23
2018-04-28T20:10:04.436Z,2.37
2018-04-28T20:12:31.944Z,2.83
2018-04-28T20:14:59.424Z,2.60
2018-04-28T20:17:26.905Z,2.63
2018-04-28T20:19:54.394Z,2.63
2018-04-28T20:22:27.947Z,2.60
2018-04-28T20:25:01.241Z,2.80
2018-04-28T20:27:28.695Z,3.20
2018-04-28T20:29:56.172Z,2.30
2018-04-28T20:32:23.657Z,2.77
2018-04-28T20:34:51.181Z,2.60
2018-04-28T20:37:18.656Z,2.40
2018-04-28T20:39:46.124Z,2.37
2018-04-28T20:42:13.616Z,2.40
2018-04-28T20:44:41.122Z,2.63
2018-04-28T20:47:08.609Z,2.80
2018-04-28T20:49:36.112Z,2.83
2018-04-28T20:52:03.605Z,2.47
2018-04-28T20:54:31.168Z,2.03
2018-04-28T20:56:58.644Z,2.57
2018-04-28T20:59:26.279Z,2.33
2018-04-28T21:01:53.777Z,2.30
2018-04-28T21:04:21.254Z,2.63
2018-04-28T21:06:48.755Z,2.07
2018-04-28T21:09:16.244Z,2.50
2018-04-28T21:11:43.955Z,2.47
2018-04-28T21:14:11.454Z,2.37
2018-04-28T21:16:38.925Z,2.40
2018-04-28T21:19:06.454Z,2.03
2018-04-28T21:21:33.958Z,2.00
2018-04-28T21:24:01.440Z,2.10
2018-04-28T21:26:29.281Z,3.33
2018-04-28T21:28:58.082Z,2.00
2018-04-28T21:31:25.676Z,2.00
2018-04-28T21:33:53.146Z,2.30
2018-04-28T21:36:21.009Z,2.30
2018-04-28T21:38:48.665Z,2.70
2018-04-28T21:41:16.585Z,2.43
2018-04-28T21:43:44.367Z,2.43
2018-04-28T21:46:11.878Z,2.30
2018-04-28T21:48:39.383Z,2.17
2018-04-28T21:51:07.615Z,2.27
2018-04-28T21:53:35.479Z,2.00
2018-04-28T21:56:03.337Z,2.73
2018-04-28T21:58:30.879Z,2.30
2018-04-28T22:00:58.650Z,2.73
2018-04-28T22:03:26.969Z,2.20
2018-04-28T22:05:54.512Z,2.57
2018-04-28T22:08:22.056Z,2.13
2018-04-28T22:10:49.829Z,2.73
2018-04-28T22:13:17.369Z,2.60
2018-04-28T22:15:45.276Z,2.50
2018-04-28T22:18:12.787Z,3.00
2018-04-28T22:20:40.295Z,2.50
2018-04-28T22:23:08.015Z,2.40
2018-04-28T22:25:35.530Z,3.07
2018-04-28T22:28:03.066Z,2.60
2018-04-28T22:30:30.596Z,2.33
2018-04-28T22:32:58.093Z,2.33
2018-04-28T22:35:25.831Z,2.40
2018-04-28T22:37:53.324Z,2.27
2018-04-28T22:40:20.846Z,2.60
2018-04-28T22:42:48.636Z,2.80
2018-04-28T22:45:16.128Z,2.67
2018-04-28T22:47:43.621Z,3.00
2018-04-28T22:50:11.293Z,2.93
2018-04-28T22:52:38.784Z,2.77
2018-04-28T22:55:06.282Z,2.87
2018-04-28T22:57:33.768Z,3.00
2018-04-28T23:00:01.261Z,2.40
2018-04-28T23:02:29.014Z,2.50
2018-04-28T23:04:56.513Z,2.70
2018-04-28T23:07:23.990Z,3.13
2018-04-28T23:09:51.489Z,2.30
2018-04-28T23:12:18.976Z,3.00
2018-04-28T23:14:46.520Z,3.73
2018-04-28T23:17:13.998Z,2.53
2018-04-28T23:19:41.487Z,3.37
2018-04-28T23:22:09.029Z,4.60
2018-04-28T23:24:36.462Z,2.67
2018-04-28T23:27:03.933Z,2.77
2018-04-28T23:29:31.408Z,2.27
2018-04-28T23:31:58.893Z,2.67
2018-04-28T23:34:26.440Z,3.00
2018-04-28T23:36:53.927Z,3.00
2018-04-28T23:39:21.404Z,3.13
2018-04-28T23:41:48.891Z,2.80
2018-04-28T23:44:16.375Z,2.90
2018-04-28T23:46:43.851Z,2.83
2018-04-28T23:49:11.340Z,2.33
2018-04-28T23:51:38.819Z,2.60
2018-04-28T23:54:06.319Z,2.23
2018-04-28T23:56:33.851Z,2.30
2018-04-28T23:59:01.340Z,2.20
